sensor_id;sensor_type;location;lat;lon;timestamp;temperature;humidity
9810;DHT22;4944;52.514;13.192;2022-10-23T00:01:28;14.90;99.90
9810;DHT22;4944;52.514;13.192;2022-10-23T00:03:58;15.00;99.90
9810;DHT22;4944;52.514;13.192;2022-10-23T00:06:26;15.00;99.90
9810;DHT22;4944;52.514;13.192;2022-10-23T00:08:53;14.90;99.90
9810;DHT22;4944;52.514;13.192;2022-10-23T00:11:22;14.90;99.90
9810;DHT22;4944;52.514;13.192;2022-10-23T00:13:53;14.90;99.90
9810;DHT22;4944;52.514;13.192;2022-10-23T00:16:20;14.90;99.90
9810;DHT22;4944;52.514;13.192;2022-10-23T00:18:47;14.90;99.90
9810;DHT22;4944;52.514;13.192;2022-10-23T00:21:15;14.80;99.90
9810;DHT22;4944;52.514;13.192;2022-10-23T00:23:42;14.80;99.90
9810;DHT22;4944;52.514;13.192;2022-10-23T00:26:09;14.70;99.90
9810;DHT22;4944;52.514;13.192;2022-10-23T00:28:40;14.70;99.90
9810;DHT22;4944;52.514;13.192;2022-10-23T00:31:09;14.70;99.90
9810;DHT22;4944;52.514;13.192;2022-10-23T00:33:36;14.70;99.90
9810;DHT22;4944;52.514;13.192;2022-10-23T00:36:04;14.70;99.90
9810;DHT22;4944;52.514;13.192;2022-10-23T00:38:31;14.70;99.90
9810;DHT22;4944;52.514;13.192;2022-10-23T00:40:58;14.80;99.90
9810;DHT22;4944;52.514;13.192;2022-10-23T00:43:28;14.80;99.90
9810;DHT22;4944;52.514;13.192;2022-10-23T00:45:56;14.80;99.90
9810;DHT22;4944;52.514;13.192;2022-10-23T00:48:25;14.80;99.90
9810;DHT22;4944;52.514;13.192;2022-10-23T00:50:53;14.70;99.90
9810;DHT22;4944;52.514;13.192;2022-10-23T00:53:21;14.80;99.90
9810;DHT22;4944;52.514;13.192;2022-10-23T00:55:49;14.80;99.90
9810;DHT22;4944;52.514;13.192;2022-10-23T00:58:19;14.90;99.90
9810;DHT22;4944;52.514;13.192;2022-10-23T01:00:48;14.90;99.90
9810;DHT22;4944;52.514;13.192;2022-10-23T01:03:17;14.90;99.90
9810;DHT22;4944;52.514;13.192;2022-10-23T01:05:50;14.90;99.90
9810;DHT22;4944;52.514;13.192;2022-10-23T01:08:23;14.90;99.90
9810;DHT22;4944;52.514;13.192;2022-10-23T01:10:58;14.90;99.90
9810;DHT22;4944;52.514;13.192;2022-10-23T01:13:33;14.90;99.90
9810;DHT22;4944;52.514;13.192;2022-10-23T01:16:07;14.80;99.90
9810;DHT22;4944;52.514;13.192;2022-10-23T01:18:40;14.80;99.90
9810;DHT22;4944;52.514;13.192;2022-10-23T01:21:15;14.80;99.90
9810;DHT22;4944;52.514;13.192;2022-10-23T01:24:06;14.80;99.90
9810;DHT22;4944;52.514;13.192;2022-10-23T01:26:50;14.70;99.90
9810;DHT22;4944;52.514;13.192;2022-10-23T01:29:23;14.70;99.90
9810;DHT22;4944;52.514;13.192;2022-10-23T01:31:55;14.70;99.90
9810;DHT22;4944;52.514;13.192;2022-10-23T01:34:36;14.70;99.90
9810;DHT22;4944;52.514;13.192;2022-10-23T01:37:07;14.70;99.90
9810;DHT22;4944;52.514;13.192;2022-10-23T01:39:39;14.70;99.90
9810;DHT22;4944;52.514;13.192;2022-10-23T01:42:12;14.70;99.90
9810;DHT22;4944;52.514;13.192;2022-10-23T01:44:45;14.70;99.90
9810;DHT22;4944;52.514;13.192;2022-10-23T01:47:16;14.60;99.90
9810;DHT22;4944;52.514;13.192;2022-10-23T01:49:45;14.60;99.90
9810;DHT22;4944;52.514;13.192;2022-10-23T01:52:13;14.60;99.90
9810;DHT22;4944;52.514;13.192;2022-10-23T01:54:43;14.60;99.90
9810;DHT22;4944;52.514;13.192;2022-10-23T01:57:13;14.60;99.90
9810;DHT22;4944;52.514;13.192;2022-10-23T01:59:45;14.60;99.90
9810;DHT22;4944;52.514;13.192;2022-10-23T02:02:13;14.60;99.90
9810;DHT22;4944;52.514;13.192;2022-10-23T02:04:48;14.60;99.90
9810;DHT22;4944;52.514;13.192;2022-10-23T02:07:16;14.60;99.90
9810;DHT22;4944;52.514;13.192;2022-10-23T02:09:43;14.60;99.90
9810;DHT22;4944;52.514;13.192;2022-10-23T02:12:15;14.70;99.90
9810;DHT22;4944;52.514;13.192;2022-10-23T02:14:50;14.70;99.90
9810;DHT22;4944;52.514;13.192;2022-10-23T02:17:23;14.60;99.90
9810;DHT22;4944;52.514;13.192;2022-10-23T02:19:57;14.60;99.90
9810;DHT22;4944;52.514;13.192;2022-10-23T02:22:27;14.60;99.90
9810;DHT22;4944;52.514;13.192;2022-10-23T02:24:57;14.60;99.90
9810;DHT22;4944;52.514;13.192;2022-10-23T02:27:29;14.60;99.90
9810;DHT22;4944;52.514;13.192;2022-10-23T02:30:02;14.60;99.90
9810;DHT22;4944;52.514;13.192;2022-10-23T02:32:30;14.60;99.90
9810;DHT22;4944;52.514;13.192;2022-10-23T02:34:57;14.50;99.90
9810;DHT22;4944;52.514;13.192;2022-10-23T02:37:24;14.50;99.90
9810;DHT22;4944;52.514;13.192;2022-10-23T02:39:51;14.50;99.90
9810;DHT22;4944;52.514;13.192;2022-10-23T02:42:24;14.50;99.90
9810;DHT22;4944;52.514;13.192;2022-10-23T02:44:59;14.50;99.90
9810;DHT22;4944;52.514;13.192;2022-10-23T02:47:43;14.50;99.90
9810;DHT22;4944;52.514;13.192;2022-10-23T02:50:19;14.50;99.90
9810;DHT22;4944;52.514;13.192;2022-10-23T02:52:51;14.50;99.90
9810;DHT22;4944;52.514;13.192;2022-10-23T02:55:28;14.50;99.90
9810;DHT22;4944;52.514;13.192;2022-10-23T02:58:02;14.50;99.90
9810;DHT22;4944;52.514;13.192;2022-10-23T03:00:37;14.50;99.90
9810;DHT22;4944;52.514;13.192;2022-10-23T03:03:09;14.40;99.90
9810;DHT22;4944;52.514;13.192;2022-10-23T03:05:38;14.40;99.90
9810;DHT22;4944;52.514;13.192;2022-10-23T03:08:08;14.40;99.90
9810;DHT22;4944;52.514;13.192;2022-10-23T03:10:35;14.40;99.90
9810;DHT22;4944;52.514;13.192;2022-10-23T03:13:01;14.40;99.90
9810;DHT22;4944;52.514;13.192;2022-10-23T03:15:28;14.40;99.90
9810;DHT22;4944;52.514;13.192;2022-10-23T03:17:56;14.40;99.90
9810;DHT22;4944;52.514;13.192;2022-10-23T03:20:23;14.40;99.90
9810;DHT22;4944;52.514;13.192;2022-10-23T03:22:50;14.30;99.90
9810;DHT22;4944;52.514;13.192;2022-10-23T03:25:16;14.30;99.90
9810;DHT22;4944;52.514;13.192;2022-10-23T03:27:43;14.30;99.90
9810;DHT22;4944;52.514;13.192;2022-10-23T03:30:10;14.20;99.90
9810;DHT22;4944;52.514;13.192;2022-10-23T03:32:37;14.20;99.90
9810;DHT22;4944;52.514;13.192;2022-10-23T03:35:06;14.10;99.90
9810;DHT22;4944;52.514;13.192;2022-10-23T03:37:33;14.10;99.90
9810;DHT22;4944;52.514;13.192;2022-10-23T03:40:00;14.10;99.90
9810;DHT22;4944;52.514;13.192;2022-10-23T03:42:27;14.10;99.90
9810;DHT22;4944;52.514;13.192;2022-10-23T03:44:54;14.00;99.90
9810;DHT22;4944;52.514;13.192;2022-10-23T03:47:20;14.00;99.90
9810;DHT22;4944;52.514;13.192;2022-10-23T03:49:47;14.00;99.90
9810;DHT22;4944;52.514;13.192;2022-10-23T03:52:15;14.00;99.90
9810;DHT22;4944;52.514;13.192;2022-10-23T03:54:42;14.00;99.90
9810;DHT22;4944;52.514;13.192;2022-10-23T03:57:09;14.00;99.90
9810;DHT22;4944;52.514;13.192;2022-10-23T03:59:35;13.90;99.90
9810;DHT22;4944;52.514;13.192;2022-10-23T04:02:02;13.90;99.90
9810;DHT22;4944;52.514;13.192;2022-10-23T04:04:29;13.90;99.90
9810;DHT22;4944;52.514;13.192;2022-10-23T04:06:56;13.90;99.90
9810;DHT22;4944;52.514;13.192;2022-10-23T04:09:24;13.80;99.90
9810;DHT22;4944;52.514;13.192;2022-10-23T04:11:50;13.80;99.90
9810;DHT22;4944;52.514;13.192;2022-10-23T04:14:17;13.80;99.90
9810;DHT22;4944;52.514;13.192;2022-10-23T04:16:44;13.70;99.90
9810;DHT22;4944;52.514;13.192;2022-10-23T04:19:11;13.70;99.90
9810;DHT22;4944;52.514;13.192;2022-10-23T04:21:37;13.70;99.90
9810;DHT22;4944;52.514;13.192;2022-10-23T04:24:05;13.70;99.90
9810;DHT22;4944;52.514;13.192;2022-10-23T04:26:33;13.70;99.90
9810;DHT22;4944;52.514;13.192;2022-10-23T04:29:00;13.60;99.90
9810;DHT22;4944;52.514;13.192;2022-10-23T04:31:26;13.60;99.90
9810;DHT22;4944;52.514;13.192;2022-10-23T04:33:53;13.50;99.90
9810;DHT22;4944;52.514;13.192;2022-10-23T04:36:20;13.50;99.90
9810;DHT22;4944;52.514;13.192;2022-10-23T04:38:47;13.40;99.90
9810;DHT22;4944;52.514;13.192;2022-10-23T04:41:13;13.40;99.90
9810;DHT22;4944;52.514;13.192;2022-10-23T04:43:41;13.40;99.90
9810;DHT22;4944;52.514;13.192;2022-10-23T04:46:08;13.40;99.90
9810;DHT22;4944;52.514;13.192;2022-10-23T04:48:35;13.40;99.90
9810;DHT22;4944;52.514;13.192;2022-10-23T04:51:04;13.40;99.90
9810;DHT22;4944;52.514;13.192;2022-10-23T04:53:31;13.40;99.90
9810;DHT22;4944;52.514;13.192;2022-10-23T04:55:59;13.40;99.90
9810;DHT22;4944;52.514;13.192;2022-10-23T04:58:27;13.40;99.90
9810;DHT22;4944;52.514;13.192;2022-10-23T05:00:56;13.40;99.90
9810;DHT22;4944;52.514;13.192;2022-10-23T05:03:24;13.40;99.90
9810;DHT22;4944;52.514;13.192;2022-10-23T05:05:52;13.40;99.90
9810;DHT22;4944;52.514;13.192;2022-10-23T05:08:20;13.40;99.90
9810;DHT22;4944;52.514;13.192;2022-10-23T05:10:47;13.50;99.90
9810;DHT22;4944;52.514;13.192;2022-10-23T05:13:14;13.40;99.90
9810;DHT22;4944;52.514;13.192;2022-10-23T05:15:40;13.50;99.90
9810;DHT22;4944;52.514;13.192;2022-10-23T05:18:13;13.50;99.90
9810;DHT22;4944;52.514;13.192;2022-10-23T05:20:42;13.50;99.90
9810;DHT22;4944;52.514;13.192;2022-10-23T05:23:12;13.50;99.90
9810;DHT22;4944;52.514;13.192;2022-10-23T05:25:40;13.50;99.90
9810;DHT22;4944;52.514;13.192;2022-10-23T05:28:07;13.50;99.90
9810;DHT22;4944;52.514;13.192;2022-10-23T05:30:34;13.50;99.90
9810;DHT22;4944;52.514;13.192;2022-10-23T05:33:01;13.50;99.90
9810;DHT22;4944;52.514;13.192;2022-10-23T05:35:30;13.50;99.90
9810;DHT22;4944;52.514;13.192;2022-10-23T05:37:58;13.50;99.90
9810;DHT22;4944;52.514;13.192;2022-10-23T05:40:25;13.50;99.90
9810;DHT22;4944;52.514;13.192;2022-10-23T05:42:52;13.50;99.90
9810;DHT22;4944;52.514;13.192;2022-10-23T05:45:19;13.60;99.90
9810;DHT22;4944;52.514;13.192;2022-10-23T05:47:46;13.50;99.90
9810;DHT22;4944;52.514;13.192;2022-10-23T05:50:13;13.50;99.90
9810;DHT22;4944;52.514;13.192;2022-10-23T05:52:45;13.50;99.90
9810;DHT22;4944;52.514;13.192;2022-10-23T05:55:12;13.50;99.90
9810;DHT22;4944;52.514;13.192;2022-10-23T05:57:39;13.50;99.90
9810;DHT22;4944;52.514;13.192;2022-10-23T06:00:07;13.50;99.90
9810;DHT22;4944;52.514;13.192;2022-10-23T06:02:34;13.50;99.90
9810;DHT22;4944;52.514;13.192;2022-10-23T06:05:01;13.50;99.90
9810;DHT22;4944;52.514;13.192;2022-10-23T06:07:29;13.50;99.90
9810;DHT22;4944;52.514;13.192;2022-10-23T06:09:57;13.50;99.90
9810;DHT22;4944;52.514;13.192;2022-10-23T06:12:24;13.40;99.90
9810;DHT22;4944;52.514;13.192;2022-10-23T06:14:51;13.40;99.90
9810;DHT22;4944;52.514;13.192;2022-10-23T06:17:17;13.40;99.90
9810;DHT22;4944;52.514;13.192;2022-10-23T06:19:44;13.40;99.90
9810;DHT22;4944;52.514;13.192;2022-10-23T06:22:11;13.40;99.90
9810;DHT22;4944;52.514;13.192;2022-10-23T06:24:38;13.40;99.90
9810;DHT22;4944;52.514;13.192;2022-10-23T06:27:06;13.40;99.90
9810;DHT22;4944;52.514;13.192;2022-10-23T06:29:33;13.40;99.90
9810;DHT22;4944;52.514;13.192;2022-10-23T06:31:59;13.40;99.90
9810;DHT22;4944;52.514;13.192;2022-10-23T06:34:26;13.40;99.90
9810;DHT22;4944;52.514;13.192;2022-10-23T06:36:53;13.40;99.90
9810;DHT22;4944;52.514;13.192;2022-10-23T06:39:20;13.40;99.90
9810;DHT22;4944;52.514;13.192;2022-10-23T06:41:46;13.40;99.90
9810;DHT22;4944;52.514;13.192;2022-10-23T06:44:15;13.40;99.90
9810;DHT22;4944;52.514;13.192;2022-10-23T06:46:41;13.40;99.90
9810;DHT22;4944;52.514;13.192;2022-10-23T06:49:12;13.40;99.90
9810;DHT22;4944;52.514;13.192;2022-10-23T06:51:38;13.40;99.90
9810;DHT22;4944;52.514;13.192;2022-10-23T06:54:05;13.40;99.90
9810;DHT22;4944;52.514;13.192;2022-10-23T06:56:32;13.40;99.90
9810;DHT22;4944;52.514;13.192;2022-10-23T06:58:59;13.40;99.90
9810;DHT22;4944;52.514;13.192;2022-10-23T07:01:28;13.40;99.90
9810;DHT22;4944;52.514;13.192;2022-10-23T07:03:54;13.40;99.90
9810;DHT22;4944;52.514;13.192;2022-10-23T07:06:21;13.40;99.90
9810;DHT22;4944;52.514;13.192;2022-10-23T07:08:48;13.40;99.90
9810;DHT22;4944;52.514;13.192;2022-10-23T07:11:15;13.50;99.90
9810;DHT22;4944;52.514;13.192;2022-10-23T07:13:41;13.50;99.90
9810;DHT22;4944;52.514;13.192;2022-10-23T07:16:11;13.60;99.90
9810;DHT22;4944;52.514;13.192;2022-10-23T07:18:39;13.60;99.90
9810;DHT22;4944;52.514;13.192;2022-10-23T07:21:06;13.60;99.90
9810;DHT22;4944;52.514;13.192;2022-10-23T07:23:33;13.70;99.90
9810;DHT22;4944;52.514;13.192;2022-10-23T07:26:08;13.70;99.90
9810;DHT22;4944;52.514;13.192;2022-10-23T07:28:35;13.70;99.90
9810;DHT22;4944;52.514;13.192;2022-10-23T07:31:02;13.70;99.90
9810;DHT22;4944;52.514;13.192;2022-10-23T07:33:29;13.80;99.90
9810;DHT22;4944;52.514;13.192;2022-10-23T07:35:57;13.80;99.90
9810;DHT22;4944;52.514;13.192;2022-10-23T07:38:24;13.80;99.90
9810;DHT22;4944;52.514;13.192;2022-10-23T07:40:51;13.80;99.90
9810;DHT22;4944;52.514;13.192;2022-10-23T07:43:19;13.80;99.90
9810;DHT22;4944;52.514;13.192;2022-10-23T07:45:47;13.90;99.90
9810;DHT22;4944;52.514;13.192;2022-10-23T07:48:14;13.90;99.90
9810;DHT22;4944;52.514;13.192;2022-10-23T07:50:41;14.00;99.90
9810;DHT22;4944;52.514;13.192;2022-10-23T07:53:15;14.00;99.90
9810;DHT22;4944;52.514;13.192;2022-10-23T07:55:42;14.10;99.90
9810;DHT22;4944;52.514;13.192;2022-10-23T07:58:09;14.10;99.90
9810;DHT22;4944;52.514;13.192;2022-10-23T08:00:38;14.20;99.90
9810;DHT22;4944;52.514;13.192;2022-10-23T08:03:06;14.30;99.90
9810;DHT22;4944;52.514;13.192;2022-10-23T08:05:33;14.40;99.90
9810;DHT22;4944;52.514;13.192;2022-10-23T08:08:00;14.40;99.90
9810;DHT22;4944;52.514;13.192;2022-10-23T08:10:28;14.50;99.90
9810;DHT22;4944;52.514;13.192;2022-10-23T08:12:55;14.50;99.90
9810;DHT22;4944;52.514;13.192;2022-10-23T08:15:21;14.60;99.90
9810;DHT22;4944;52.514;13.192;2022-10-23T08:17:48;14.70;99.90
9810;DHT22;4944;52.514;13.192;2022-10-23T08:20:15;14.70;99.90
9810;DHT22;4944;52.514;13.192;2022-10-23T08:22:42;14.80;99.90
9810;DHT22;4944;52.514;13.192;2022-10-23T08:25:09;14.90;99.90
9810;DHT22;4944;52.514;13.192;2022-10-23T08:27:37;14.90;99.90
9810;DHT22;4944;52.514;13.192;2022-10-23T08:30:05;15.00;99.90
9810;DHT22;4944;52.514;13.192;2022-10-23T08:32:31;15.10;99.90
9810;DHT22;4944;52.514;13.192;2022-10-23T08:34:58;15.10;99.90
9810;DHT22;4944;52.514;13.192;2022-10-23T08:37:25;15.20;99.90
9810;DHT22;4944;52.514;13.192;2022-10-23T08:39:52;15.20;99.90
9810;DHT22;4944;52.514;13.192;2022-10-23T08:42:21;15.20;99.90
9810;DHT22;4944;52.514;13.192;2022-10-23T08:44:56;15.30;99.90
9810;DHT22;4944;52.514;13.192;2022-10-23T08:47:28;15.30;99.90
9810;DHT22;4944;52.514;13.192;2022-10-23T08:50:02;15.40;99.90
9810;DHT22;4944;52.514;13.192;2022-10-23T08:52:36;15.40;99.90
9810;DHT22;4944;52.514;13.192;2022-10-23T08:55:14;15.50;99.90
9810;DHT22;4944;52.514;13.192;2022-10-23T08:57:46;15.50;99.90
9810;DHT22;4944;52.514;13.192;2022-10-23T09:00:18;15.60;99.90
9810;DHT22;4944;52.514;13.192;2022-10-23T09:02:46;15.60;99.90
9810;DHT22;4944;52.514;13.192;2022-10-23T09:05:16;15.70;99.90
9810;DHT22;4944;52.514;13.192;2022-10-23T09:07:57;15.70;99.90
9810;DHT22;4944;52.514;13.192;2022-10-23T09:10:36;15.80;99.90
9810;DHT22;4944;52.514;13.192;2022-10-23T09:13:36;15.80;99.90
9810;DHT22;4944;52.514;13.192;2022-10-23T09:16:14;15.90;99.90
9810;DHT22;4944;52.514;13.192;2022-10-23T09:18:42;16.00;99.90
9810;DHT22;4944;52.514;13.192;2022-10-23T09:21:09;16.10;99.90
9810;DHT22;4944;52.514;13.192;2022-10-23T09:23:36;16.20;99.90
9810;DHT22;4944;52.514;13.192;2022-10-23T09:26:09;16.30;99.90
9810;DHT22;4944;52.514;13.192;2022-10-23T09:28:45;16.40;99.90
9810;DHT22;4944;52.514;13.192;2022-10-23T09:31:13;16.40;99.90
9810;DHT22;4944;52.514;13.192;2022-10-23T09:33:40;16.40;99.90
9810;DHT22;4944;52.514;13.192;2022-10-23T09:36:17;16.50;99.90
9810;DHT22;4944;52.514;13.192;2022-10-23T09:38:48;16.60;99.90
9810;DHT22;4944;52.514;13.192;2022-10-23T09:41:19;16.70;99.90
9810;DHT22;4944;52.514;13.192;2022-10-23T09:43:57;16.80;99.90
9810;DHT22;4944;52.514;13.192;2022-10-23T09:46:36;16.80;99.90
9810;DHT22;4944;52.514;13.192;2022-10-23T09:49:02;17.00;99.90
9810;DHT22;4944;52.514;13.192;2022-10-23T09:51:30;17.00;99.90
9810;DHT22;4944;52.514;13.192;2022-10-23T09:53:58;17.10;99.90
9810;DHT22;4944;52.514;13.192;2022-10-23T09:56:27;17.10;99.90
9810;DHT22;4944;52.514;13.192;2022-10-23T09:58:56;17.20;99.90
9810;DHT22;4944;52.514;13.192;2022-10-23T10:01:27;17.30;99.90
9810;DHT22;4944;52.514;13.192;2022-10-23T10:03:53;17.30;99.90
9810;DHT22;4944;52.514;13.192;2022-10-23T10:06:23;17.40;99.90
9810;DHT22;4944;52.514;13.192;2022-10-23T10:08:52;17.40;99.90
9810;DHT22;4944;52.514;13.192;2022-10-23T10:11:25;17.50;99.90
9810;DHT22;4944;52.514;13.192;2022-10-23T10:14:24;17.60;99.90
9810;DHT22;4944;52.514;13.192;2022-10-23T10:16:58;17.70;99.90
9810;DHT22;4944;52.514;13.192;2022-10-23T10:19:45;17.70;99.90
9810;DHT22;4944;52.514;13.192;2022-10-23T10:22:25;17.80;99.90
9810;DHT22;4944;52.514;13.192;2022-10-23T10:24:58;17.90;99.90
9810;DHT22;4944;52.514;13.192;2022-10-23T10:27:37;18.00;99.90
9810;DHT22;4944;52.514;13.192;2022-10-23T10:30:11;18.20;99.90
9810;DHT22;4944;52.514;13.192;2022-10-23T10:32:44;18.20;99.90
9810;DHT22;4944;52.514;13.192;2022-10-23T10:35:22;18.30;99.90
9810;DHT22;4944;52.514;13.192;2022-10-23T10:41:11;18.40;99.90
9810;DHT22;4944;52.514;13.192;2022-10-23T10:43:51;18.60;99.90
9810;DHT22;4944;52.514;13.192;2022-10-23T10:46:25;18.70;99.90
9810;DHT22;4944;52.514;13.192;2022-10-23T10:48:59;18.70;99.90
9810;DHT22;4944;52.514;13.192;2022-10-23T10:51:32;18.80;99.90
9810;DHT22;4944;52.514;13.192;2022-10-23T10:54:13;18.80;99.90
9810;DHT22;4944;52.514;13.192;2022-10-23T10:56:43;18.90;99.90
9810;DHT22;4944;52.514;13.192;2022-10-23T10:59:15;18.90;99.90
9810;DHT22;4944;52.514;13.192;2022-10-23T11:01:48;18.80;99.90
9810;DHT22;4944;52.514;13.192;2022-10-23T11:04:27;18.80;99.90
9810;DHT22;4944;52.514;13.192;2022-10-23T11:06:58;18.80;99.90
9810;DHT22;4944;52.514;13.192;2022-10-23T11:09:28;18.80;99.90
9810;DHT22;4944;52.514;13.192;2022-10-23T11:11:55;18.80;99.90
9810;DHT22;4944;52.514;13.192;2022-10-23T11:14:24;18.80;99.90
9810;DHT22;4944;52.514;13.192;2022-10-23T11:16:53;18.80;99.90
9810;DHT22;4944;52.514;13.192;2022-10-23T11:19:26;18.90;99.90
9810;DHT22;4944;52.514;13.192;2022-10-23T11:21:59;19.00;99.90
9810;DHT22;4944;52.514;13.192;2022-10-23T11:24:50;19.00;99.90
9810;DHT22;4944;52.514;13.192;2022-10-23T11:27:27;19.20;99.90
9810;DHT22;4944;52.514;13.192;2022-10-23T11:30:16;19.30;99.90
9810;DHT22;4944;52.514;13.192;2022-10-23T11:33:11;19.40;99.90
9810;DHT22;4944;52.514;13.192;2022-10-23T11:35:56;19.50;99.90
9810;DHT22;4944;52.514;13.192;2022-10-23T11:38:30;19.60;99.90
9810;DHT22;4944;52.514;13.192;2022-10-23T11:40:59;19.60;99.90
9810;DHT22;4944;52.514;13.192;2022-10-23T11:43:28;19.70;99.90
9810;DHT22;4944;52.514;13.192;2022-10-23T11:45:56;19.70;99.90
9810;DHT22;4944;52.514;13.192;2022-10-23T11:48:34;19.70;99.90
9810;DHT22;4944;52.514;13.192;2022-10-23T11:51:04;19.80;99.90
9810;DHT22;4944;52.514;13.192;2022-10-23T11:53:38;19.80;99.90
9810;DHT22;4944;52.514;13.192;2022-10-23T11:56:24;19.80;99.90
9810;DHT22;4944;52.514;13.192;2022-10-23T11:58:52;19.80;99.90
9810;DHT22;4944;52.514;13.192;2022-10-23T12:01:28;19.80;99.90
9810;DHT22;4944;52.514;13.192;2022-10-23T12:03:59;19.90;99.90
9810;DHT22;4944;52.514;13.192;2022-10-23T12:06:31;20.00;99.90
9810;DHT22;4944;52.514;13.192;2022-10-23T12:09:06;20.10;99.90
9810;DHT22;4944;52.514;13.192;2022-10-23T12:11:43;20.20;99.90
9810;DHT22;4944;52.514;13.192;2022-10-23T12:14:26;20.30;99.90
9810;DHT22;4944;52.514;13.192;2022-10-23T12:16:52;20.30;99.90
9810;DHT22;4944;52.514;13.192;2022-10-23T12:19:21;20.30;99.90
9810;DHT22;4944;52.514;13.192;2022-10-23T12:21:52;20.40;99.90
9810;DHT22;4944;52.514;13.192;2022-10-23T12:24:38;20.30;99.90
9810;DHT22;4944;52.514;13.192;2022-10-23T12:27:29;20.20;99.90
9810;DHT22;4944;52.514;13.192;2022-10-23T12:30:13;20.20;99.90
9810;DHT22;4944;52.514;13.192;2022-10-23T12:32:57;20.00;99.90
9810;DHT22;4944;52.514;13.192;2022-10-23T12:38:26;19.80;99.90
9810;DHT22;4944;52.514;13.192;2022-10-23T12:40:59;19.70;99.90
9810;DHT22;4944;52.514;13.192;2022-10-23T12:43:28;19.70;99.90
9810;DHT22;4944;52.514;13.192;2022-10-23T12:45:59;19.60;99.90
9810;DHT22;4944;52.514;13.192;2022-10-23T12:48:28;19.50;99.90
9810;DHT22;4944;52.514;13.192;2022-10-23T12:50:55;19.40;99.90
9810;DHT22;4944;52.514;13.192;2022-10-23T12:53:22;19.40;99.90
9810;DHT22;4944;52.514;13.192;2022-10-23T12:55:55;19.30;99.90
9810;DHT22;4944;52.514;13.192;2022-10-23T12:58:24;19.30;99.90
9810;DHT22;4944;52.514;13.192;2022-10-23T13:00:54;19.30;99.90
9810;DHT22;4944;52.514;13.192;2022-10-23T13:03:23;19.30;99.90
9810;DHT22;4944;52.514;13.192;2022-10-23T13:05:51;19.20;99.90
9810;DHT22;4944;52.514;13.192;2022-10-23T13:08:20;19.20;99.90
9810;DHT22;4944;52.514;13.192;2022-10-23T13:10:48;19.20;99.90
9810;DHT22;4944;52.514;13.192;2022-10-23T13:13:21;19.20;99.90
9810;DHT22;4944;52.514;13.192;2022-10-23T13:15:48;19.20;99.90
9810;DHT22;4944;52.514;13.192;2022-10-23T13:18:16;19.10;99.90
9810;DHT22;4944;52.514;13.192;2022-10-23T13:20:55;19.10;99.90
9810;DHT22;4944;52.514;13.192;2022-10-23T13:23:27;19.10;99.90
9810;DHT22;4944;52.514;13.192;2022-10-23T13:25:57;19.10;99.90
9810;DHT22;4944;52.514;13.192;2022-10-23T13:28:26;19.10;99.90
9810;DHT22;4944;52.514;13.192;2022-10-23T13:31:00;19.20;99.90
9810;DHT22;4944;52.514;13.192;2022-10-23T13:33:32;19.20;99.90
9810;DHT22;4944;52.514;13.192;2022-10-23T13:36:00;19.20;99.90
9810;DHT22;4944;52.514;13.192;2022-10-23T13:38:32;19.30;99.90
9810;DHT22;4944;52.514;13.192;2022-10-23T13:41:00;19.30;99.90
9810;DHT22;4944;52.514;13.192;2022-10-23T13:43:29;19.20;99.90
9810;DHT22;4944;52.514;13.192;2022-10-23T13:45:57;19.20;99.90
9810;DHT22;4944;52.514;13.192;2022-10-23T13:48:24;19.20;99.90
9810;DHT22;4944;52.514;13.192;2022-10-23T13:50:51;19.20;99.90
9810;DHT22;4944;52.514;13.192;2022-10-23T13:53:19;19.20;99.90
9810;DHT22;4944;52.514;13.192;2022-10-23T13:55:49;19.30;99.90
9810;DHT22;4944;52.514;13.192;2022-10-23T13:58:17;19.40;99.90
9810;DHT22;4944;52.514;13.192;2022-10-23T14:00:46;19.30;99.90
9810;DHT22;4944;52.514;13.192;2022-10-23T14:03:14;19.20;99.90
9810;DHT22;4944;52.514;13.192;2022-10-23T14:05:41;19.20;99.90
9810;DHT22;4944;52.514;13.192;2022-10-23T14:08:08;19.20;99.90
9810;DHT22;4944;52.514;13.192;2022-10-23T14:10:35;19.10;99.90
9810;DHT22;4944;52.514;13.192;2022-10-23T14:13:02;19.10;99.90
9810;DHT22;4944;52.514;13.192;2022-10-23T14:15:28;19.00;99.90
9810;DHT22;4944;52.514;13.192;2022-10-23T14:17:56;19.00;99.90
9810;DHT22;4944;52.514;13.192;2022-10-23T14:20:23;19.00;99.90
9810;DHT22;4944;52.514;13.192;2022-10-23T14:22:50;19.00;99.90
9810;DHT22;4944;52.514;13.192;2022-10-23T14:25:17;18.90;99.90
9810;DHT22;4944;52.514;13.192;2022-10-23T14:27:43;19.00;99.90
9810;DHT22;4944;52.514;13.192;2022-10-23T14:30:11;18.90;99.90
9810;DHT22;4944;52.514;13.192;2022-10-23T14:32:37;18.90;99.90
9810;DHT22;4944;52.514;13.192;2022-10-23T14:35:07;18.90;99.90
9810;DHT22;4944;52.514;13.192;2022-10-23T14:37:34;19.00;99.90
9810;DHT22;4944;52.514;13.192;2022-10-23T14:40:00;19.00;99.90
9810;DHT22;4944;52.514;13.192;2022-10-23T14:42:27;19.00;99.90
9810;DHT22;4944;52.514;13.192;2022-10-23T14:44:58;19.00;99.90
9810;DHT22;4944;52.514;13.192;2022-10-23T14:47:25;19.00;99.90
9810;DHT22;4944;52.514;13.192;2022-10-23T14:49:52;18.90;99.90
9810;DHT22;4944;52.514;13.192;2022-10-23T14:52:22;18.90;99.90
9810;DHT22;4944;52.514;13.192;2022-10-23T14:54:50;18.80;99.90
9810;DHT22;4944;52.514;13.192;2022-10-23T14:57:17;18.80;99.90
9810;DHT22;4944;52.514;13.192;2022-10-23T14:59:45;18.80;99.90
9810;DHT22;4944;52.514;13.192;2022-10-23T15:02:12;18.80;99.90
9810;DHT22;4944;52.514;13.192;2022-10-23T15:04:39;18.70;99.90
9810;DHT22;4944;52.514;13.192;2022-10-23T15:07:06;18.70;99.90
9810;DHT22;4944;52.514;13.192;2022-10-23T15:09:34;18.70;99.90
9810;DHT22;4944;52.514;13.192;2022-10-23T15:12:03;18.60;99.90
9810;DHT22;4944;52.514;13.192;2022-10-23T15:14:30;18.60;99.90
9810;DHT22;4944;52.514;13.192;2022-10-23T15:16:57;18.60;99.90
9810;DHT22;4944;52.514;13.192;2022-10-23T15:19:23;18.40;99.90
9810;DHT22;4944;52.514;13.192;2022-10-23T15:21:50;18.40;99.90
9810;DHT22;4944;52.514;13.192;2022-10-23T15:24:17;18.40;99.90
9810;DHT22;4944;52.514;13.192;2022-10-23T15:26:46;18.30;99.90
9810;DHT22;4944;52.514;13.192;2022-10-23T15:29:14;18.30;99.90
9810;DHT22;4944;52.514;13.192;2022-10-23T15:31:47;18.30;99.90
9810;DHT22;4944;52.514;13.192;2022-10-23T15:34:16;18.20;99.90
9810;DHT22;4944;52.514;13.192;2022-10-23T15:36:44;18.20;99.90
9810;DHT22;4944;52.514;13.192;2022-10-23T15:39:11;18.10;99.90
9810;DHT22;4944;52.514;13.192;2022-10-23T15:41:39;18.10;99.90
9810;DHT22;4944;52.514;13.192;2022-10-23T15:44:10;18.00;99.90
9810;DHT22;4944;52.514;13.192;2022-10-23T15:46:37;18.00;99.90
9810;DHT22;4944;52.514;13.192;2022-10-23T15:49:04;17.90;99.90
9810;DHT22;4944;52.514;13.192;2022-10-23T15:51:33;17.90;99.90
9810;DHT22;4944;52.514;13.192;2022-10-23T15:54:01;17.90;99.90
9810;DHT22;4944;52.514;13.192;2022-10-23T15:56:28;17.90;99.90
9810;DHT22;4944;52.514;13.192;2022-10-23T15:58:55;17.80;99.90
9810;DHT22;4944;52.514;13.192;2022-10-23T16:01:23;17.80;99.90
9810;DHT22;4944;52.514;13.192;2022-10-23T16:03:50;17.80;99.90
9810;DHT22;4944;52.514;13.192;2022-10-23T16:06:17;17.80;99.90
9810;DHT22;4944;52.514;13.192;2022-10-23T16:08:44;17.80;99.90